モントリオール/トルドー の空港の天気 - METARとTAF

モントリオール・ピエール・エリオット・トルドー国際空港 ( CYUL / YUL ) - カナダ ケベック州モントリオール
飛行場実況気象(Metar)
観測時間10/25 17:00 EDT (10/25 21:00 UTC)
風向・風速東北東 4m/s
視程10km以上
天気現象
全天の8割程度の雲 雲底高度 4570m
全天を覆う雲 雲底高度 6100m
気温5℃
湿度36%
気圧1028.6hPa
METARCYUL 252100Z 07007KT 050V110 30SM BKN150 OVC200 05/M09 A3037 RMK AC6CI2 SLP286
過去の天気等 Google飛行場航空写真 Wunderground天気予報

過去48時間のMETAR

飛行場予報(TAF)
発表時間: 10/25 16:38 EDT (10/25 20:38 UTC)
予報対象時間: 25日17時 EDT ~ 26日14時 EDT
風向・風速東北東 4m/s
視程10km以上
全天の8割程度の雲 雲底高度 3050m
全天の8割程度の雲 雲底高度 5490m
26日5時 EDT から
風向・風速東北東 4m/s
視程10km以上
天気現象弱いしゅう雨雪
全天の8割程度の雲 雲底高度 910m
全天の8割程度の雲 雲底高度 2440m
26日7時 EDT から
風向・風速南南東 3m/s
視程3220m
天気現象弱い雨 もや
全天を覆う雲 雲底高度 180m
26日10時 EDT ~ 26日12時 EDT に徐々に
風向・風速南東 5m/s 瞬間風速 10m/s
TAF CYUL 252038Z 2521/2618 07008KT P6SM BKN100 BKN180
FM260900 07008KT P6SM -SHRASN BKN030 BKN080
FM261100 15006KT 2SM -RA BR OVC006
BECMG 2614/2616 14010G20KT RMK NXT FCST BY 260000Z